Portada
METAR-TAF:

METAR-TAF

Aeroports :

Boca Raton, Florida, Estats Units d'Amèrica

latitud: 26-22-43N, longitud: 080-06-28W, altitud: 4 m

Observació

L'informe es va fer fa 4 hores i 13 minuts, a les 02:47 UTC
Vent 8 kt del Oest/Nord-Oest
Temperatura 27°C
Humitat 89%
Pressió 1014 hPa
Visibilitat: 16.1 km
Escasses núvols a una alçada de 5500 ft

METAR: KBCT 160247Z 30008KT 10SM FEW055 27/25 A2993

Hora: 03:00 (07:00 UTC)


TAF: manca

Observacions i pronòstics meteorològics de més de 4000 aeroports (METAR i TAF).

Les estacions disponibles són els punts grocs i vermells al mapa.

Posi el ratolí al punt desitjat per veure el nom de l'estació.

Feu clic per veure les observacions i els pronòstics meteorològics.

Per canviar el mapa: feu clic els botons verds amb una creu de color negre per apropar; al botó verd amb un guió per allunyar la imatge; o en les fletxes verdes per a mapes adjacents.


METAR-TAF: